Time;durP1;ratioP1;P1;durP2;ratioP2;P2;SDS_P1;SDS_P2;PMS_P1;PMS_P2;Temp;Humidity;BMP_temperature;BMP_pressure;BME280_temperature;BME280_humidity;BME280_pressure;Samples;Min_cycle;Max_cycle;Signal;HPM_P1;HPM_P2
2021/11/28 00:00:39;;;;;;;10.38;6.38;;;;;;;;;;5027908;28;20115;-77
2021/11/28 00:03:06;;;;;;;9.48;5.05;;;;;;;;;;5028086;28;20056;-77
2021/11/28 00:05:34;;;;;;;9.88;4.32;;;;;;;;;;5027814;28;20427;-78
2021/11/28 00:08:17;;;;;;;7.82;4.50;;;;;;;;;;5027924;28;20103;-77
2021/11/28 00:11:03;;;;;;;10.40;5.47;;;;;;;;;;5028059;28;20135;-77
2021/11/28 00:13:46;;;;;;;9.52;5.32;;;;;;;;;;5027944;28;20467;-77
2021/11/28 00:16:13;;;;;;;9.57;4.90;;;;;;;;;;5028007;28;20459;-77
2021/11/28 00:18:40;;;;;;;10.20;4.65;;;;;;;;;;5034121;28;20500;-77
2021/11/28 00:21:07;;;;;;;8.52;3.90;;;;;;;;;;5034568;28;20057;-77
2021/11/28 00:23:34;;;;;;;9.80;4.28;;;;;;;;;;5034616;28;20131;-76
2021/11/28 00:26:01;;;;;;;8.20;4.47;;;;;;;;;;5034077;28;20053;-77
2021/11/28 00:28:28;;;;;;;8.13;4.40;;;;;;;;;;5034318;28;20463;-76
2021/11/28 00:30:57;;;;;;;7.38;4.00;;;;;;;;;;5034324;28;20107;-76
2021/11/28 00:33:24;;;;;;;5.90;3.97;;;;;;;;;;5036772;28;20050;-77
2021/11/28 00:35:52;;;;;;;7.68;4.50;;;;;;;;;;5045949;28;20323;-75
2021/11/28 00:38:18;;;;;;;8.65;4.40;;;;;;;;;;5041012;28;20046;-76
2021/11/28 00:40:45;;;;;;;9.60;4.18;;;;;;;;;;5035084;28;20092;-77
2021/11/28 00:43:12;;;;;;;8.20;4.40;;;;;;;;;;5034252;28;20095;-77
2021/11/28 00:45:38;;;;;;;7.75;4.57;;;;;;;;;;5034595;28;20096;-77
2021/11/28 00:48:07;;;;;;;8.95;4.03;;;;;;;;;;5034207;28;20049;-77
2021/11/28 00:50:44;;;;;;;8.05;4.32;;;;;;;;;;5034095;28;20049;-77
2021/11/28 00:53:13;;;;;;;10.05;4.85;;;;;;;;;;5034162;28;20456;-77
2021/11/28 00:55:40;;;;;;;6.20;3.75;;;;;;;;;;5033607;28;20090;-76
2021/11/28 00:58:07;;;;;;;7.10;4.25;;;;;;;;;;5033788;28;20049;-76
2021/11/28 01:00:33;;;;;;;7.88;4.28;;;;;;;;;;5033708;28;20419;-77
2021/11/28 01:03:00;;;;;;;6.57;3.60;;;;;;;;;;5033529;28;20081;-76
2021/11/28 01:05:28;;;;;;;7.70;4.00;;;;;;;;;;5036309;28;20045;-77
2021/11/28 01:07:55;;;;;;;6.53;3.50;;;;;;;;;;5035901;28;20103;-78
2021/11/28 01:10:22;;;;;;;8.80;3.97;;;;;;;;;;5036080;28;20107;-78
2021/11/28 01:12:49;;;;;;;8.63;4.10;;;;;;;;;;5035498;28;20046;-77
2021/11/28 01:15:16;;;;;;;6.93;4.07;;;;;;;;;;5033268;28;20523;-77
2021/11/28 01:17:43;;;;;;;7.32;3.78;;;;;;;;;;5033602;28;20127;-77
2021/11/28 01:20:12;;;;;;;7.25;3.92;;;;;;;;;;5035304;28;20060;-77
2021/11/28 01:22:41;;;;;;;9.00;5.10;;;;;;;;;;5039684;28;20080;-77
2021/11/28 01:25:11;;;;;;;6.25;3.90;;;;;;;;;;5038751;28;20046;-77
2021/11/28 01:27:38;;;;;;;7.00;4.50;;;;;;;;;;5038085;28;20504;-76
2021/11/28 01:30:06;;;;;;;8.63;4.70;;;;;;;;;;5039908;28;20080;-76
2021/11/28 01:32:35;;;;;;;7.22;4.10;;;;;;;;;;5049805;28;20107;-76
2021/11/28 01:35:02;;;;;;;7.68;3.95;;;;;;;;;;5040434;28;20137;-77
2021/11/28 01:37:29;;;;;;;7.53;4.15;;;;;;;;;;5034902;28;20447;-77
2021/11/28 01:39:57;;;;;;;7.93;4.38;;;;;;;;;;5035915;28;20049;-77
2021/11/28 01:42:38;;;;;;;8.07;3.78;;;;;;;;;;5035329;28;20562;-77
2021/11/28 01:45:07;;;;;;;7.65;3.80;;;;;;;;;;5035977;28;20041;-77
2021/11/28 01:47:34;;;;;;;6.43;3.20;;;;;;;;;;5035994;28;20049;-77
2021/11/28 01:50:01;;;;;;;5.88;3.42;;;;;;;;;;5035905;28;20057;-77
2021/11/28 01:52:28;;;;;;;7.15;3.38;;;;;;;;;;5036235;28;20046;-76
2021/11/28 01:54:57;;;;;;;7.45;3.28;;;;;;;;;;5035254;28;20065;-77
2021/11/28 01:57:23;;;;;;;6.07;3.15;;;;;;;;;;5034731;28;20072;-76
2021/11/28 01:59:50;;;;;;;7.50;3.85;;;;;;;;;;5032567;28;20108;-77
2021/11/28 02:02:17;;;;;;;6.10;3.05;;;;;;;;;;5032682;28;20050;-76
2021/11/28 02:04:45;;;;;;;6.10;3.22;;;;;;;;;;5032683;28;20049;-76
2021/11/28 02:07:13;;;;;;;6.72;3.22;;;;;;;;;;5032257;28;20407;-76
2021/11/28 02:09:40;;;;;;;7.43;3.25;;;;;;;;;;5034950;28;20051;-77
2021/11/28 02:12:09;;;;;;;5.60;2.80;;;;;;;;;;5035540;28;20111;-76
2021/11/28 02:14:36;;;;;;;5.20;2.53;;;;;;;;;;5032454;28;20045;-77
2021/11/28 02:17:03;;;;;;;6.63;3.60;;;;;;;;;;5032806;28;20045;-76
2021/11/28 02:19:30;;;;;;;5.65;3.00;;;;;;;;;;5032111;28;20057;-76
2021/11/28 02:21:58;;;;;;;6.93;2.95;;;;;;;;;;5032347;28;20042;-77
2021/11/28 02:24:25;;;;;;;5.88;3.10;;;;;;;;;;5032425;28;20108;-77
2021/11/28 02:26:52;;;;;;;5.85;3.30;;;;;;;;;;5032562;28;20467;-76
2021/11/28 02:29:18;;;;;;;5.45;3.05;;;;;;;;;;5032928;28;20045;-76
2021/11/28 02:31:45;;;;;;;6.85;2.83;;;;;;;;;;5042044;28;20050;-76
2021/11/28 02:34:12;;;;;;;5.45;2.95;;;;;;;;;;5049758;28;20080;-76
2021/11/28 02:36:39;;;;;;;8.95;3.08;;;;;;;;;;5034988;28;20415;-77
2021/11/28 02:39:07;;;;;;;5.50;2.75;;;;;;;;;;5033134;28;20114;-76
2021/11/28 02:41:34;;;;;;;4.90;2.58;;;;;;;;;;5034112;28;20069;-76
2021/11/28 02:44:01;;;;;;;5.47;2.50;;;;;;;;;;5033625;28;20431;-77
2021/11/28 02:46:28;;;;;;;6.28;2.45;;;;;;;;;;5032277;28;20061;-77
2021/11/28 02:48:54;;;;;;;5.38;2.60;;;;;;;;;;5031963;28;20065;-76
2021/11/28 02:51:21;;;;;;;4.53;2.08;;;;;;;;;;5032150;28;20045;-76
2021/11/28 02:53:48;;;;;;;5.18;2.20;;;;;;;;;;5031830;28;20054;-76
2021/11/28 02:56:16;;;;;;;3.88;1.98;;;;;;;;;;5031779;28;20500;-76
2021/11/28 02:58:43;;;;;;;4.38;2.00;;;;;;;;;;5032052;28;20443;-77
2021/11/28 03:01:13;;;;;;;4.68;2.33;;;;;;;;;;5032001;28;20100;-76
2021/11/28 03:03:41;;;;;;;6.00;2.25;;;;;;;;;;5032219;28;20049;-77
2021/11/28 03:06:07;;;;;;;5.35;2.50;;;;;;;;;;5031868;28;20045;-76
2021/11/28 03:08:34;;;;;;;5.75;2.30;;;;;;;;;;5035633;28;20049;-77
2021/11/28 03:11:01;;;;;;;4.13;2.40;;;;;;;;;;5035781;28;20076;-76
2021/11/28 03:13:31;;;;;;;5.82;2.53;;;;;;;;;;5035940;28;20075;-77
2021/11/28 03:16:01;;;;;;;4.63;2.20;;;;;;;;;;5035856;28;20046;-77
2021/11/28 03:18:29;;;;;;;5.10;2.33;;;;;;;;;;5035460;28;20045;-77
2021/11/28 03:21:05;;;;;;;4.72;2.05;;;;;;;;;;5035872;28;20099;-76
2021/11/28 03:23:33;;;;;;;5.28;2.25;;;;;;;;;;5035785;28;20088;-77
2021/11/28 03:26:08;;;;;;;5.15;2.60;;;;;;;;;;5036057;28;20053;-76
2021/11/28 03:28:38;;;;;;;5.88;2.47;;;;;;;;;;5035452;28;20046;-76
2021/11/28 03:31:05;;;;;;;5.90;2.40;;;;;;;;;;5035221;28;20045;-76
2021/11/28 03:33:32;;;;;;;5.80;2.70;;;;;;;;;;5035210;28;20088;-76
2021/11/28 03:35:59;;;;;;;5.05;2.60;;;;;;;;;;5035470;28;20045;-77
2021/11/28 03:38:26;;;;;;;6.43;2.53;;;;;;;;;;5034843;28;20554;-76
2021/11/28 03:40:53;;;;;;;5.07;2.40;;;;;;;;;;5035340;28;20049;-76
2021/11/28 03:43:20;;;;;;;4.93;2.63;;;;;;;;;;5035011;28;20111;-76
2021/11/28 03:45:48;;;;;;;5.13;2.28;;;;;;;;;;5035369;28;20099;-77
2021/11/28 03:48:15;;;;;;;5.82;2.72;;;;;;;;;;5035010;28;20041;-76
2021/11/28 03:50:43;;;;;;;7.35;2.80;;;;;;;;;;5035374;28;20049;-77
2021/11/28 03:53:10;;;;;;;6.97;3.50;;;;;;;;;;5036284;28;20050;-76
2021/11/28 03:55:37;;;;;;;6.22;3.65;;;;;;;;;;5035228;28;20103;-76
2021/11/28 03:58:04;;;;;;;6.40;3.15;;;;;;;;;;5034975;28;20127;-76
2021/11/28 04:00:31;;;;;;;9.73;3.80;;;;;;;;;;5034613;28;20045;-75
2021/11/28 04:02:59;;;;;;;6.47;3.85;;;;;;;;;;5034610;28;20080;-77
2021/11/28 04:05:26;;;;;;;7.32;3.50;;;;;;;;;;5034684;28;20569;-77
2021/11/28 04:07:53;;;;;;;8.93;3.40;;;;;;;;;;5034893;28;20127;-76
2021/11/28 04:10:20;;;;;;;6.00;3.00;;;;;;;;;;5034714;28;20045;-76
2021/11/28 04:12:47;;;;;;;6.28;2.50;;;;;;;;;;5035037;28;20103;-76
2021/11/28 04:15:14;;;;;;;7.22;3.00;;;;;;;;;;5034737;28;20049;-76
2021/11/28 04:17:41;;;;;;;4.75;2.50;;;;;;;;;;5034033;28;20041;-76
2021/11/28 04:20:10;;;;;;;6.45;2.30;;;;;;;;;;5034462;28;20049;-77
2021/11/28 04:22:38;;;;;;;6.93;2.90;;;;;;;;;;5034583;28;20526;-76
2021/11/28 04:25:06;;;;;;;5.53;2.78;;;;;;;;;;5034729;28;20116;-76
2021/11/28 04:27:33;;;;;;;4.95;2.25;;;;;;;;;;5033848;28;20111;-75
2021/11/28 04:30:00;;;;;;;4.88;2.40;;;;;;;;;;5034121;28;20046;-76
2021/11/28 04:32:27;;;;;;;5.15;2.65;;;;;;;;;;5034115;28;20095;-76
2021/11/28 04:34:53;;;;;;;5.85;2.95;;;;;;;;;;5034109;28;20231;-76
2021/11/28 04:37:22;;;;;;;5.88;2.83;;;;;;;;;;5034292;28;20049;-76
2021/11/28 04:39:49;;;;;;;4.53;2.65;;;;;;;;;;5033636;28;20057;-76
2021/11/28 04:42:16;;;;;;;6.00;2.88;;;;;;;;;;5034366;28;20334;-76
2021/11/28 04:44:43;;;;;;;6.88;2.88;;;;;;;;;;5034149;28;20136;-76
2021/11/28 04:47:10;;;;;;;5.18;2.92;;;;;;;;;;5033870;28;20492;-76
2021/11/28 04:49:37;;;;;;;6.28;3.10;;;;;;;;;;5033451;28;20501;-76
2021/11/28 04:52:04;;;;;;;5.22;3.03;;;;;;;;;;5034219;28;20046;-75
2021/11/28 04:54:32;;;;;;;8.55;3.60;;;;;;;;;;5033588;28;20465;-76
2021/11/28 04:56:59;;;;;;;6.95;3.15;;;;;;;;;;5034246;28;20120;-76
2021/11/28 04:59:25;;;;;;;8.15;3.60;;;;;;;;;;5033476;28;20103;-76
2021/11/28 05:01:52;;;;;;;6.45;2.83;;;;;;;;;;5033785;28;20468;-76
2021/11/28 05:04:19;;;;;;;6.22;3.20;;;;;;;;;;5033841;28;20068;-76
2021/11/28 05:06:46;;;;;;;6.97;3.10;;;;;;;;;;5033867;28;20455;-76
2021/11/28 05:09:13;;;;;;;5.57;3.20;;;;;;;;;;5033444;28;20101;-76
2021/11/28 05:11:41;;;;;;;9.27;3.22;;;;;;;;;;5034014;28;20127;-78
2021/11/28 05:14:08;;;;;;;4.55;2.50;;;;;;;;;;5033656;28;20049;-76
2021/11/28 05:16:37;;;;;;;6.25;3.30;;;;;;;;;;5033630;28;20105;-76
2021/11/28 05:19:04;;;;;;;7.55;4.03;;;;;;;;;;5033534;28;20053;-75
2021/11/28 05:21:31;;;;;;;5.35;2.92;;;;;;;;;;5052297;28;20038;-74
2021/11/28 05:23:58;;;;;;;7.78;3.50;;;;;;;;;;5048854;28;20107;-76
2021/11/28 05:26:25;;;;;;;6.88;3.55;;;;;;;;;;5034505;28;20516;-76
2021/11/28 05:28:53;;;;;;;7.07;3.75;;;;;;;;;;5032917;28;20650;-76
2021/11/28 05:31:20;;;;;;;6.93;3.40;;;;;;;;;;5032708;28;20516;-76
2021/11/28 05:33:47;;;;;;;6.70;3.75;;;;;;;;;;5033119;28;20134;-76
2021/11/28 05:36:15;;;;;;;6.32;3.85;;;;;;;;;;5032993;28;20107;-76
2021/11/28 05:38:42;;;;;;;6.63;3.53;;;;;;;;;;5032858;28;20041;-76
2021/11/28 05:41:09;;;;;;;7.22;3.90;;;;;;;;;;5033951;28;20049;-76
2021/11/28 05:43:39;;;;;;;8.45;3.58;;;;;;;;;;5032827;28;20103;-78
2021/11/28 05:46:07;;;;;;;8.18;3.88;;;;;;;;;;5033405;28;20458;-76
2021/11/28 05:48:34;;;;;;;6.95;3.72;;;;;;;;;;5037062;28;20053;-75
2021/11/28 05:51:01;;;;;;;7.45;3.28;;;;;;;;;;5039326;28;20049;-76
2021/11/28 05:53:28;;;;;;;8.73;3.35;;;;;;;;;;5039610;28;20045;-75
2021/11/28 05:55:54;;;;;;;6.13;3.10;;;;;;;;;;5039615;28;20049;-76
2021/11/28 05:58:22;;;;;;;5.75;3.00;;;;;;;;;;5038964;28;20046;-76
2021/11/28 06:00:49;;;;;;;7.70;3.33;;;;;;;;;;5033500;28;20111;-77
2021/11/28 06:03:17;;;;;;;6.15;3.00;;;;;;;;;;5033568;28;20084;-76
2021/11/28 06:05:46;;;;;;;7.53;3.28;;;;;;;;;;5033339;28;20045;-76
2021/11/28 06:08:13;;;;;;;6.80;2.97;;;;;;;;;;5032975;28;20061;-76
2021/11/28 06:10:40;;;;;;;6.90;3.28;;;;;;;;;;5032555;28;20520;-76
2021/11/28 06:13:07;;;;;;;7.45;3.63;;;;;;;;;;5033179;28;20115;-75
2021/11/28 06:15:34;;;;;;;7.97;3.55;;;;;;;;;;5033272;28;20570;-76
2021/11/28 06:18:00;;;;;;;7.78;2.97;;;;;;;;;;5033009;28;20561;-76
2021/11/28 06:20:28;;;;;;;7.43;3.83;;;;;;;;;;5032922;28;20080;-76
2021/11/28 06:22:55;;;;;;;7.05;3.42;;;;;;;;;;5032934;28;20049;-76
2021/11/28 06:25:22;;;;;;;6.80;3.65;;;;;;;;;;5032906;28;20053;-76
2021/11/28 06:27:49;;;;;;;7.18;3.35;;;;;;;;;;5032562;28;20041;-77
2021/11/28 06:30:16;;;;;;;6.40;2.95;;;;;;;;;;5032612;28;20054;-77
2021/11/28 06:32:42;;;;;;;5.75;2.92;;;;;;;;;;5032373;28;20143;-76
2021/11/28 06:35:09;;;;;;;6.10;2.80;;;;;;;;;;5032540;28;20089;-76
2021/11/28 06:37:37;;;;;;;6.53;3.00;;;;;;;;;;5032562;28;20049;-77
2021/11/28 06:40:06;;;;;;;6.15;3.00;;;;;;;;;;5032176;28;20554;-76
2021/11/28 06:42:32;;;;;;;7.75;3.15;;;;;;;;;;5032722;28;20139;-77
2021/11/28 06:44:59;;;;;;;7.35;3.40;;;;;;;;;;5033057;28;20095;-77
2021/11/28 06:47:26;;;;;;;6.85;3.33;;;;;;;;;;5034135;28;20099;-77
2021/11/28 06:49:53;;;;;;;13.07;6.90;;;;;;;;;;5034178;28;20563;-77
2021/11/28 06:52:19;;;;;;;8.60;4.60;;;;;;;;;;5032817;28;20127;-77
2021/11/28 06:54:48;;;;;;;6.63;3.60;;;;;;;;;;5032435;28;20471;-77
2021/11/28 06:57:14;;;;;;;7.38;3.28;;;;;;;;;;5032209;28;20053;-77
2021/11/28 06:59:41;;;;;;;8.57;2.70;;;;;;;;;;5031718;28;20501;-78
2021/11/28 07:02:08;;;;;;;11.15;3.80;;;;;;;;;;5031832;28;20054;-77
2021/11/28 07:04:35;;;;;;;6.60;2.63;;;;;;;;;;5032219;28;20052;-77
2021/11/28 07:07:02;;;;;;;6.70;3.20;;;;;;;;;;5032291;28;20104;-77
2021/11/28 07:09:29;;;;;;;5.50;2.92;;;;;;;;;;5031702;28;20046;-77
2021/11/28 07:11:58;;;;;;;8.95;3.45;;;;;;;;;;5031728;28;20056;-77
2021/11/28 07:14:24;;;;;;;7.45;3.90;;;;;;;;;;5031691;28;20412;-77
2021/11/28 07:16:51;;;;;;;7.97;3.10;;;;;;;;;;5031869;28;20554;-77
2021/11/28 07:19:18;;;;;;;10.95;4.28;;;;;;;;;;5031690;28;20130;-77
2021/11/28 07:21:45;;;;;;;13.88;6.05;;;;;;;;;;5032070;28;20554;-77
2021/11/28 07:24:12;;;;;;;6.68;3.13;;;;;;;;;;5031596;28;20056;-77
2021/11/28 07:26:39;;;;;;;6.57;3.03;;;;;;;;;;5032038;28;20052;-77
2021/11/28 07:29:07;;;;;;;6.80;3.03;;;;;;;;;;5031333;28;20068;-76
2021/11/28 07:31:33;;;;;;;5.90;2.90;;;;;;;;;;5031966;28;20045;-77
2021/11/28 07:34:00;;;;;;;9.20;3.60;;;;;;;;;;5031820;28;20135;-77
2021/11/28 07:36:27;;;;;;;7.10;3.65;;;;;;;;;;5031568;28;20046;-77
2021/11/28 07:38:54;;;;;;;7.32;3.65;;;;;;;;;;5031068;28;20413;-77
2021/11/28 07:41:21;;;;;;;7.95;3.25;;;;;;;;;;5031843;28;20126;-77
2021/11/28 07:43:47;;;;;;;8.07;3.63;;;;;;;;;;5031529;28;20103;-77
2021/11/28 07:46:16;;;;;;;7.35;2.85;;;;;;;;;;5031153;28;20496;-77
2021/11/28 07:48:42;;;;;;;6.82;2.60;;;;;;;;;;5031305;28;20046;-77
2021/11/28 07:51:09;;;;;;;11.43;4.63;;;;;;;;;;5031589;28;20050;-77
2021/11/28 07:53:38;;;;;;;8.82;4.45;;;;;;;;;;5033457;28;20048;-77
2021/11/28 07:56:05;;;;;;;7.65;2.95;;;;;;;;;;5034964;28;20141;-77
2021/11/28 07:58:32;;;;;;;5.72;2.45;;;;;;;;;;5034873;28;20493;-76
2021/11/28 08:01:02;;;;;;;5.05;2.00;;;;;;;;;;5035270;28;20056;-76
2021/11/28 08:03:30;;;;;;;6.75;2.33;;;;;;;;;;5034965;28;20041;-77
2021/11/28 08:05:58;;;;;;;5.30;2.13;;;;;;;;;;5035151;28;20080;-76
2021/11/28 08:08:27;;;;;;;4.82;1.60;;;;;;;;;;5035625;28;20057;-76
2021/11/28 08:10:54;;;;;;;4.72;2.00;;;;;;;;;;5047026;28;20064;-75
2021/11/28 08:13:21;;;;;;;5.07;1.98;;;;;;;;;;5054172;28;20115;-77
2021/11/28 08:15:48;;;;;;;6.18;2.30;;;;;;;;;;5040645;28;20119;-77
2021/11/28 08:18:15;;;;;;;4.53;2.58;;;;;;;;;;5035267;28;20455;-78
2021/11/28 08:20:43;;;;;;;4.40;2.10;;;;;;;;;;5034765;28;20099;-77
2021/11/28 08:23:10;;;;;;;4.03;2.15;;;;;;;;;;5034682;28;20053;-77
2021/11/28 08:25:37;;;;;;;5.63;1.80;;;;;;;;;;5034508;28;20050;-76
2021/11/28 08:28:06;;;;;;;4.40;1.98;;;;;;;;;;5034235;28;20546;-75
2021/11/28 08:30:33;;;;;;;4.38;1.70;;;;;;;;;;5034170;28;20050;-76
2021/11/28 08:33:00;;;;;;;7.55;2.05;;;;;;;;;;5034759;28;20041;-76
2021/11/28 08:35:29;;;;;;;5.47;2.10;;;;;;;;;;5034241;28;20054;-76
2021/11/28 08:37:58;;;;;;;7.40;3.90;;;;;;;;;;5034416;28;20110;-76
2021/11/28 08:40:26;;;;;;;13.02;5.80;;;;;;;;;;5034377;28;20104;-77
2021/11/28 08:42:55;;;;;;;39.40;17.38;;;;;;;;;;5037423;28;20038;-77
2021/11/28 08:45:22;;;;;;;9.65;5.40;;;;;;;;;;5027089;28;20386;-77
2021/11/28 08:47:49;;;;;;;9.05;4.45;;;;;;;;;;5031877;28;20843;-77
2021/11/28 08:50:16;;;;;;;15.25;5.80;;;;;;;;;;5027835;28;20049;-77
2021/11/28 08:52:49;;;;;;;9.07;3.15;;;;;;;;;;5036400;28;20041;-76
2021/11/28 08:55:18;;;;;;;5.70;2.38;;;;;;;;;;5035480;28;20045;-79
2021/11/28 08:57:46;;;;;;;4.53;2.22;;;;;;;;;;5036006;28;20649;-79
2021/11/28 09:00:15;;;;;;;7.32;2.30;;;;;;;;;;5035510;28;20041;-77
2021/11/28 09:02:42;;;;;;;4.72;2.42;;;;;;;;;;5033975;28;20045;-76
2021/11/28 09:05:09;;;;;;;5.53;2.45;;;;;;;;;;5026503;28;20381;-79
2021/11/28 09:07:36;;;;;;;6.65;2.95;;;;;;;;;;5027715;28;20049;-77
2021/11/28 09:10:03;;;;;;;5.00;2.47;;;;;;;;;;5024871;28;20100;-78
2021/11/28 09:12:32;;;;;;;7.88;3.58;;;;;;;;;;5036307;28;20104;-76
2021/11/28 09:14:58;;;;;;;6.45;3.08;;;;;;;;;;5034725;28;20045;-77
2021/11/28 09:17:25;;;;;;;8.23;3.33;;;;;;;;;;5032604;28;20484;-77
2021/11/28 09:19:57;;;;;;;7.07;2.88;;;;;;;;;;5035393;28;20077;-78
2021/11/28 09:22:33;;;;;;;6.55;2.72;;;;;;;;;;5035869;28;20080;-77
2021/11/28 09:25:00;;;;;;;5.40;2.70;;;;;;;;;;5034976;28;20050;-77
2021/11/28 09:27:27;;;;;;;6.30;2.45;;;;;;;;;;5035095;28;20051;-77
2021/11/28 09:29:55;;;;;;;6.20;2.63;;;;;;;;;;5035054;28;20455;-78
2021/11/28 09:32:22;;;;;;;10.05;3.33;;;;;;;;;;5035003;28;20049;-78
2021/11/28 09:34:49;;;;;;;15.18;6.18;;;;;;;;;;5035208;28;20041;-77
2021/11/28 09:37:16;;;;;;;8.43;3.92;;;;;;;;;;5034730;28;20128;-78
2021/11/28 09:39:45;;;;;;;7.32;3.10;;;;;;;;;;5033942;28;20049;-77
2021/11/28 09:42:17;;;;;;;6.47;2.65;;;;;;;;;;5034364;28;20053;-77
2021/11/28 09:44:43;;;;;;;8.45;3.00;;;;;;;;;;5023280;28;20104;-78
2021/11/28 09:47:12;;;;;;;7.00;3.10;;;;;;;;;;5034682;28;20041;-78
2021/11/28 09:49:41;;;;;;;6.72;3.42;;;;;;;;;;5035772;28;20053;-81
2021/11/28 09:52:11;;;;;;;6.25;2.95;;;;;;;;;;5031650;28;20042;-79
2021/11/28 09:54:42;;;;;;;5.88;2.70;;;;;;;;;;5031977;28;20049;-78
2021/11/28 09:57:12;;;;;;;9.00;3.40;;;;;;;;;;5032457;28;20475;-79
2021/11/28 09:59:41;;;;;;;7.18;3.70;;;;;;;;;;5039492;28;20806;-79
2021/11/28 10:02:08;;;;;;;5.95;3.30;;;;;;;;;;5039033;28;20049;-76
2021/11/28 10:04:37;;;;;;;8.00;2.97;;;;;;;;;;5040517;28;20045;-76
2021/11/28 10:07:04;;;;;;;6.15;3.00;;;;;;;;;;5034883;28;20045;-77
2021/11/28 10:09:31;;;;;;;6.95;2.90;;;;;;;;;;5031050;28;20397;-75
2021/11/28 10:12:16;;;;;;;6.75;2.75;;;;;;;;;;5025467;28;20547;-76
2021/11/28 10:14:46;;;;;;;6.20;3.10;;;;;;;;;;5028895;28;20049;-76
2021/11/28 10:17:14;;;;;;;5.97;2.85;;;;;;;;;;5030031;28;20103;-76
2021/11/28 10:19:42;;;;;;;9.80;3.60;;;;;;;;;;5030277;28;20053;-76
2021/11/28 10:22:09;;;;;;;7.07;3.28;;;;;;;;;;5027260;28;20045;-75
2021/11/28 10:24:36;;;;;;;17.73;7.68;;;;;;;;;;5026827;28;20115;-76
2021/11/28 10:27:08;;;;;;;9.73;3.50;;;;;;;;;;5024992;28;20052;-76
2021/11/28 10:29:36;;;;;;;8.48;3.75;;;;;;;;;;5025125;28;20049;-76
2021/11/28 10:32:05;;;;;;;7.93;3.72;;;;;;;;;;5028442;28;20037;-78
2021/11/28 10:34:36;;;;;;;8.73;3.60;;;;;;;;;;5032150;28;20044;-77
2021/11/28 10:37:06;;;;;;;6.93;3.67;;;;;;;;;;5027006;28;20041;-77
2021/11/28 10:39:39;;;;;;;10.90;3.45;;;;;;;;;;5024659;28;20055;-77
2021/11/28 10:42:06;;;;;;;8.48;4.13;;;;;;;;;;5024331;28;20144;-77
2021/11/28 10:44:33;;;;;;;7.55;3.97;;;;;;;;;;5025418;28;20053;-77
2021/11/28 10:47:09;;;;;;;7.35;3.97;;;;;;;;;;5023897;28;20084;-77
2021/11/28 10:49:38;;;;;;;6.63;3.60;;;;;;;;;;5025294;28;20053;-77
2021/11/28 10:52:11;;;;;;;9.25;3.95;;;;;;;;;;5028782;28;20037;-77
2021/11/28 10:54:42;;;;;;;6.93;3.95;;;;;;;;;;5030876;28;20058;-77
2021/11/28 10:57:20;;;;;;;9.50;4.47;;;;;;;;;;5028332;28;20041;-77
2021/11/28 10:59:59;;;;;;;9.93;4.10;;;;;;;;;;5026436;28;20076;-77
2021/11/28 11:02:28;;;;;;;6.75;3.88;;;;;;;;;;5045262;28;20088;-75
2021/11/28 11:04:56;;;;;;;9.38;4.45;;;;;;;;;;5041891;28;20690;-76
2021/11/28 11:07:25;;;;;;;9.65;3.72;;;;;;;;;;5027848;28;20041;-77
2021/11/28 11:09:54;;;;;;;11.13;4.63;;;;;;;;;;5026136;28;20045;-77
2021/11/28 11:12:23;;;;;;;9.30;4.20;;;;;;;;;;5026608;28;20048;-77
2021/11/28 11:14:52;;;;;;;7.57;3.92;;;;;;;;;;5025937;28;20049;-77
2021/11/28 11:17:19;;;;;;;11.38;3.95;;;;;;;;;;5025686;28;20048;-77
2021/11/28 11:19:48;;;;;;;6.78;3.75;;;;;;;;;;5025289;28;20104;-77
2021/11/28 11:22:18;;;;;;;7.80;2.83;;;;;;;;;;5028174;28;20041;-77
2021/11/28 11:24:56;;;;;;;6.20;3.13;;;;;;;;;;5028373;28;20091;-77
2021/11/28 11:27:27;;;;;;;8.95;3.00;;;;;;;;;;5028943;28;20045;-77
2021/11/28 11:29:55;;;;;;;;;;;;;;;;;;5033059;28;20520;-78
2021/11/28 11:32:24;;;;;;;7.18;3.03;;;;;;;;;;5030156;28;20366;-76
2021/11/28 11:34:54;;;;;;;5.85;2.80;;;;;;;;;;5031242;28;20049;-79
2021/11/28 11:37:24;;;;;;;6.95;2.92;;;;;;;;;;5040089;28;20037;-76
2021/11/28 11:39:54;;;;;;;6.85;3.42;;;;;;;;;;5053190;22;20504;-81
2021/11/28 11:42:23;;;;;;;6.53;3.08;;;;;;;;;;5033657;28;20443;-80
2021/11/28 11:44:51;;;;;;;10.60;4.35;;;;;;;;;;5033517;28;20103;-79
2021/11/28 11:47:19;;;;;;;18.98;8.50;;;;;;;;;;5033630;28;20033;-79
2021/11/28 11:49:47;;;;;;;13.15;6.22;;;;;;;;;;5033802;28;20065;-79
2021/11/28 11:52:15;;;;;;;9.10;4.53;;;;;;;;;;5034632;28;20468;-79
2021/11/28 11:54:46;;;;;;;10.63;4.60;;;;;;;;;;5034801;28;20103;-80
2021/11/28 11:57:18;;;;;;;6.53;3.50;;;;;;;;;;5035245;28;20046;-80
2021/11/28 12:00:12;;;;;;;11.60;3.55;;;;;;;;;;5033935;28;20042;-80
2021/11/28 12:02:42;;;;;;;7.25;3.50;;;;;;;;;;5033806;28;20053;-80
2021/11/28 12:05:30;;;;;;;11.63;4.63;;;;;;;;;;5036055;28;20049;-80
2021/11/28 12:07:59;;;;;;;7.53;3.15;;;;;;;;;;5033491;28;20045;-80
2021/11/28 12:10:28;;;;;;;5.82;2.55;;;;;;;;;;5034076;28;20045;-80
2021/11/28 12:12:56;;;;;;;7.05;2.88;;;;;;;;;;5033983;28;20267;-80
2021/11/28 12:15:24;;;;;;;6.03;2.70;;;;;;;;;;5034317;28;20053;-81
2021/11/28 12:17:52;;;;;;;6.47;3.28;;;;;;;;;;5039164;28;20052;-80
2021/11/28 12:20:57;;;;;;;5.95;3.22;;;;;;;;;;5036539;28;20070;-79
2021/11/28 12:23:53;;;;;;;8.15;3.97;;;;;;;;;;5035166;28;20083;-80
2021/11/28 12:26:45;;;;;;;8.20;3.90;;;;;;;;;;5035624;28;20033;-80
2021/11/28 12:29:48;;;;;;;11.10;4.78;;;;;;;;;;5034606;28;20071;-80
2021/11/28 12:32:30;;;;;;;14.77;5.95;;;;;;;;;;5035543;28;20088;-79
2021/11/28 12:35:02;;;;;;;8.70;4.28;;;;;;;;;;5034644;28;20049;-79
2021/11/28 12:37:32;;;;;;;10.48;4.65;;;;;;;;;;5033812;28;20045;-80
2021/11/28 12:40:14;;;;;;;;;;;;;;;;;;5034678;28;20401;-80
2021/11/28 12:42:43;;;;;;;;;;;;;;;;;;5039651;28;20342;-78
2021/11/28 12:45:10;;;;;;;9.38;4.40;;;;;;;;;;5039004;28;19925;-79
2021/11/28 12:47:39;;;;;;;11.45;4.90;;;;;;;;;;5039635;28;20180;-79
2021/11/28 12:50:16;;;;;;;12.90;5.60;;;;;;;;;;5039438;28;20045;-79
2021/11/28 12:52:45;;;;;;;11.30;5.22;;;;;;;;;;5040470;28;20053;-79
2021/11/28 12:55:20;;;;;;;11.13;5.03;;;;;;;;;;5040318;28;20495;-79
2021/11/28 12:58:05;;;;;;;11.20;5.90;;;;;;;;;;5039361;28;20073;-79
2021/11/28 13:00:34;;;;;;;13.77;6.10;;;;;;;;;;5039391;28;20444;-78
2021/11/28 13:06:01;;;;;;;10.80;6.43;;;;;;;;;;5039328;28;20042;-79
2021/11/28 13:08:32;;;;;;;13.98;6.40;;;;;;;;;;5039927;28;20049;-78
2021/11/28 13:11:08;;;;;;;14.02;6.70;;;;;;;;;;5042436;28;20525;-79
2021/11/28 13:13:37;;;;;;;16.75;6.70;;;;;;;;;;5043988;28;20049;-79
2021/11/28 13:16:06;;;;;;;15.50;6.53;;;;;;;;;;5040665;28;20132;-79
2021/11/28 13:18:37;;;;;;;14.05;7.03;;;;;;;;;;5040024;28;20054;-79
2021/11/28 13:21:07;;;;;;;13.50;6.88;;;;;;;;;;5042851;28;20041;-79
2021/11/28 13:23:39;;;;;;;16.67;8.05;;;;;;;;;;5040359;28;20053;-79
2021/11/28 13:26:07;;;;;;;16.42;7.80;;;;;;;;;;5040808;28;20049;-79
2021/11/28 13:28:37;;;;;;;18.50;8.55;;;;;;;;;;5040440;28;20049;-79
2021/11/28 13:31:08;;;;;;;14.43;7.17;;;;;;;;;;5040040;28;20103;-79
2021/11/28 13:33:47;;;;;;;16.40;7.88;;;;;;;;;;5036989;28;20636;-82
2021/11/28 13:36:14;;;;;;;16.23;7.05;;;;;;;;;;5031685;28;20468;-80
2021/11/28 13:38:43;;;;;;;16.90;8.43;;;;;;;;;;5033235;28;20037;-80
2021/11/28 13:41:13;;;;;;;19.20;8.52;;;;;;;;;;5033065;28;20061;-81
2021/11/28 13:43:42;;;;;;;19.58;8.63;;;;;;;;;;5034405;28;20046;-81
2021/11/28 13:46:09;;;;;;;17.73;8.07;;;;;;;;;;5033944;28;20389;-81
2021/11/28 13:48:47;;;;;;;18.10;8.57;;;;;;;;;;5033863;28;20566;-81
2021/11/28 13:51:16;;;;;;;17.85;8.52;;;;;;;;;;5032566;28;20124;-82
2021/11/28 13:53:52;;;;;;;20.35;9.55;;;;;;;;;;5032920;28;20053;-81
2021/11/28 13:56:20;;;;;;;18.92;7.65;;;;;;;;;;5033648;28;20042;-80
2021/11/28 13:59:03;;;;;;;16.25;8.30;;;;;;;;;;5033624;28;20093;-81
2021/11/28 14:01:30;;;;;;;18.70;8.38;;;;;;;;;;5035214;28;20080;-81
2021/11/28 14:03:58;;;;;;;20.08;9.57;;;;;;;;;;5034109;28;20108;-81
2021/11/28 14:06:25;;;;;;;18.30;8.65;;;;;;;;;;5034614;28;20193;-80
2021/11/28 14:08:52;;;;;;;19.73;7.78;;;;;;;;;;5033650;28;20041;-80
2021/11/28 14:11:19;;;;;;;21.13;8.57;;;;;;;;;;5034734;28;20042;-80
2021/11/28 14:13:48;;;;;;;16.05;8.57;;;;;;;;;;5035723;28;20049;-81
2021/11/28 14:16:27;;;;;;;20.20;9.38;;;;;;;;;;5039620;28;21076;-81
2021/11/28 14:18:54;;;;;;;20.13;8.98;;;;;;;;;;5036386;28;20103;-81
2021/11/28 14:21:32;;;;;;;19.17;8.88;;;;;;;;;;5038508;28;21313;-81
2021/11/28 14:23:59;;;;;;;17.25;9.50;;;;;;;;;;5044355;28;20046;-81
2021/11/28 14:26:32;;;;;;;21.50;10.65;;;;;;;;;;5045242;28;20272;-81
2021/11/28 14:29:02;;;;;;;18.65;9.60;;;;;;;;;;5045175;28;20087;-82
2021/11/28 14:31:29;;;;;;;17.30;8.38;;;;;;;;;;5038651;28;20487;-82
2021/11/28 14:33:56;;;;;;;19.80;9.05;;;;;;;;;;5037214;28;20041;-81
2021/11/28 14:36:25;;;;;;;18.85;9.98;;;;;;;;;;5037513;28;20041;-81
2021/11/28 14:38:55;;;;;;;21.45;9.27;;;;;;;;;;5037391;28;20041;-81
2021/11/28 14:41:24;;;;;;;18.25;9.48;;;;;;;;;;5035770;28;20389;-81
2021/11/28 14:43:57;;;;;;;16.08;8.30;;;;;;;;;;5038465;28;20114;-82
2021/11/28 14:46:25;;;;;;;22.02;9.70;;;;;;;;;;5041623;28;20045;-81
2021/11/28 14:48:58;;;;;;;19.00;8.52;;;;;;;;;;5044504;28;20550;-80
2021/11/28 14:51:35;;;;;;;20.52;9.27;;;;;;;;;;5039660;28;20048;-81
2021/11/28 14:54:07;;;;;;;19.08;8.63;;;;;;;;;;5038315;28;20045;-80